メインページ
METAR-TAF:

METAR-TAF

空港 :

ヌアクショット空港

ヌアクショット, モーリタニア

緯度: 18-18-36N, 経度: 015-58-11W, 海抜: 3m

現時点の気象観測

当レポートは53分前の11:30(UTC)に作成
の風 9kt、東/北東から南東の間で変化する
気温 34°C
湿度 28%
気圧 1012 hPa
視程: 8000m

METAR: GQNO 211130Z 10009KT 060V130 8000 NSC 34/13 Q1012 NOSIG

時間: 12:23 (12:23 UTC)

予報

当レポートは1時間23分前の11:00(UTC)に作成
予報は21日の 12時(UTC)から 22日の 18時(UTC)まで有効
の風 12kt
視程: 7000m
21日の 15時(UTC)から 21日の 18時(UTC)まで徐々に
の風 10kt
22日の 06時(UTC)から 22日の 08時(UTC)まで徐々に
東/北東の風 12kt

TAF: GQNO 211100Z 2112/2218 08012KT 7000 NSC BECMG 2115/2118 35010KT BECMG 2206/2208 06012KT

4,000以上の空港の気象観測と天気予報(METAR報とTAF報)

利用可能な観測所は地図上に黄色い丸と赤い丸で示す。

丸の上にカーソルを重ねると観測所名を参照できる。

次にクリックすると気象観測と天気予報を参照できる。

マップの切り替え:黒色「×」印の緑ボタンをクリックして拡大、「-」印の緑ボタンをクリックして縮小、緑色の三角印をクリックして隣りの地図に切り替え


METAR-TAF: